createdAt,value
2023-01-29T00:00:22.625Z,95.51
2023-01-29T00:01:22.985Z,95.41
2023-01-29T00:02:23.225Z,95.31
2023-01-29T00:03:23.388Z,95.62
2023-01-29T00:04:23.597Z,95.10
2023-01-29T00:05:28.371Z,95.31
2023-01-29T00:06:24.145Z,95.10
2023-01-29T00:07:24.333Z,95.20
2023-01-29T00:08:24.605Z,95.10
2023-01-29T00:09:24.841Z,95.10
2023-01-29T00:10:25.107Z,95.51
2023-01-29T00:11:25.537Z,94.58
2023-01-29T00:12:25.579Z,94.68
2023-01-29T00:13:25.845Z,94.48
2023-01-29T00:14:26.108Z,95.10
2023-01-29T00:15:26.371Z,95.20
2023-01-29T00:16:26.697Z,95.10
2023-01-29T00:17:26.880Z,95.31
2023-01-29T00:18:27.125Z,95.31
2023-01-29T00:19:27.383Z,95.51
2023-01-29T00:20:27.688Z,95.00
2023-01-29T00:21:27.900Z,94.79
2023-01-29T00:22:28.117Z,95.20
2023-01-29T00:23:28.391Z,95.20
2023-01-29T00:24:28.811Z,95.20
2023-01-29T00:25:28.865Z,95.20
2023-01-29T00:26:29.150Z,95.20
2023-01-29T00:27:29.396Z,95.41
2023-01-29T00:28:29.613Z,95.00
2023-01-29T00:29:29.864Z,95.31
2023-01-29T00:30:30.131Z,95.41
2023-01-29T00:31:30.493Z,95.20
2023-01-29T00:32:30.601Z,95.41
2023-01-29T00:33:30.836Z,95.20
2023-01-29T00:34:31.094Z,95.20
2023-01-29T00:35:31.341Z,95.41
2023-01-29T00:36:31.931Z,95.31
2023-01-29T00:37:31.879Z,95.36
2023-01-29T00:38:32.138Z,95.20
2023-01-29T00:39:46.818Z,95.31
2023-01-29T00:40:32.612Z,95.31
2023-01-29T00:41:32.990Z,95.36
2023-01-29T00:42:33.111Z,95.41
2023-01-29T00:43:33.350Z,96.45
2023-01-29T00:44:33.598Z,96.24
2023-01-29T00:45:33.848Z,96.14
2023-01-29T00:46:34.306Z,96.24
2023-01-29T00:47:34.437Z,96.34
2023-01-29T00:48:34.591Z,96.24
2023-01-29T00:49:34.826Z,96.50
2023-01-29T00:50:35.076Z,96.55
2023-01-29T00:51:35.346Z,96.14
2023-01-29T00:52:35.567Z,96.34
2023-01-29T00:53:35.843Z,96.14
2023-01-29T00:54:36.104Z,96.55
2023-01-29T00:55:36.333Z,95.83
2023-01-29T00:56:36.593Z,95.83
2023-01-29T00:57:36.878Z,95.00
2023-01-29T00:58:37.119Z,95.51
2023-01-29T00:59:37.433Z,95.93
2023-01-29T01:00:37.777Z,95.51
2023-01-29T01:01:37.966Z,95.51
2023-01-29T01:02:38.186Z,95.51
2023-01-29T01:03:38.477Z,95.20
2023-01-29T01:04:38.742Z,95.41
2023-01-29T01:05:38.983Z,95.93
2023-01-29T01:06:39.259Z,95.51
2023-01-29T01:07:39.713Z,95.93
2023-01-29T01:08:39.844Z,95.93
2023-01-29T01:09:40.124Z,96.55
2023-01-29T01:10:40.364Z,96.66
2023-01-29T01:11:40.656Z,95.41
2023-01-29T01:12:40.975Z,95.51
2023-01-29T01:13:41.184Z,95.51
2023-01-29T01:14:41.449Z,95.62
2023-01-29T01:15:41.712Z,95.31
2023-01-29T01:16:41.992Z,95.31
2023-01-29T01:17:42.265Z,95.31
2023-01-29T01:18:42.497Z,96.34
2023-01-29T01:19:42.761Z,96.34
2023-01-29T01:20:43.063Z,96.76
2023-01-29T01:21:43.288Z,96.86
2023-01-29T01:22:43.568Z,96.66
2023-01-29T01:23:43.857Z,96.55
2023-01-29T01:24:44.119Z,96.76
2023-01-29T01:25:44.398Z,96.45
2023-01-29T01:26:44.653Z,96.86
2023-01-29T01:27:44.909Z,97.07
2023-01-29T01:28:45.167Z,96.86
2023-01-29T01:29:45.480Z,96.66
2023-01-29T01:30:45.837Z,96.76
2023-01-29T01:31:46.092Z,96.76
2023-01-29T01:32:46.239Z,96.76
2023-01-29T01:33:46.494Z,96.55
2023-01-29T01:34:46.751Z,96.97
2023-01-29T01:35:47.092Z,96.76
2023-01-29T01:36:47.289Z,96.34
2023-01-29T01:37:47.570Z,96.86
2023-01-29T01:38:47.822Z,96.66
2023-01-29T01:39:48.062Z,96.76
2023-01-29T01:40:48.551Z,96.66
2023-01-29T01:41:48.599Z,96.66
2023-01-29T01:42:48.829Z,96.55
2023-01-29T01:43:49.086Z,96.55
2023-01-29T01:44:49.390Z,97.17
2023-01-29T01:45:49.662Z,97.07
2023-01-29T01:46:49.908Z,97.12
2023-01-29T01:47:50.246Z,97.17
2023-01-29T01:48:50.380Z,97.02
2023-01-29T01:49:50.643Z,97.07
2023-01-29T01:50:50.892Z,97.12
2023-01-29T01:51:51.147Z,97.17
2023-01-29T01:52:51.403Z,97.12
2023-01-29T01:53:51.622Z,97.07
2023-01-29T01:54:51.833Z,97.22
2023-01-29T01:55:52.073Z,97.07
2023-01-29T01:56:52.264Z,97.38
2023-01-29T01:57:52.559Z,97.12
2023-01-29T01:58:52.695Z,97.38
2023-01-29T01:59:52.919Z,97.33
2023-01-29T02:00:53.196Z,97.38
2023-01-29T02:01:53.374Z,97.38
2023-01-29T02:02:53.663Z,97.33
2023-01-29T02:03:53.799Z,96.81
2023-01-29T02:04:54.038Z,96.86
2023-01-29T02:05:54.274Z,97.22
2023-01-29T02:06:54.509Z,96.55
2023-01-29T02:07:54.885Z,96.55
2023-01-29T02:08:55.014Z,97.28
2023-01-29T02:09:55.219Z,96.97
2023-01-29T02:10:55.444Z,97.02
2023-01-29T02:11:55.669Z,96.97
2023-01-29T02:12:55.915Z,96.97
2023-01-29T02:13:56.131Z,96.97
2023-01-29T02:14:56.570Z,96.86
2023-01-29T02:15:56.592Z,96.45
2023-01-29T02:16:56.829Z,97.07
2023-01-29T02:17:57.051Z,96.76
2023-01-29T02:18:57.282Z,96.97
2023-01-29T02:19:57.558Z,96.76
2023-01-29T02:20:57.836Z,96.66
2023-01-29T02:21:58.018Z,96.66
2023-01-29T02:22:58.262Z,96.66
2023-01-29T02:23:58.666Z,96.76
2023-01-29T02:24:58.827Z,96.66
2023-01-29T02:25:59.026Z,96.55
2023-01-29T02:26:59.278Z,96.66
2023-01-29T02:27:59.524Z,96.76
2023-01-29T02:28:59.787Z,96.66
2023-01-29T02:30:00.161Z,96.86
2023-01-29T02:31:00.420Z,96.76
2023-01-29T02:32:00.573Z,96.66
2023-01-29T02:33:00.779Z,96.55
2023-01-29T02:34:01.052Z,96.66
2023-01-29T02:35:01.313Z,96.86
2023-01-29T02:36:01.547Z,96.76
2023-01-29T02:37:02.147Z,96.55
2023-01-29T02:38:02.044Z,96.66
2023-01-29T02:39:02.287Z,96.66
2023-01-29T02:40:02.499Z,96.66
2023-01-29T02:41:02.761Z,96.66
2023-01-29T02:42:03.108Z,96.86
2023-01-29T02:43:03.271Z,96.55
2023-01-29T02:44:03.547Z,96.34
2023-01-29T02:45:03.817Z,96.86
2023-01-29T02:46:04.142Z,96.66
2023-01-29T02:47:04.352Z,96.66
2023-01-29T02:48:04.577Z,96.76
2023-01-29T02:49:04.845Z,96.66
2023-01-29T02:50:05.120Z,96.55
2023-01-29T02:51:05.390Z,96.45
2023-01-29T02:52:05.683Z,96.76
2023-01-29T02:53:05.902Z,96.66
2023-01-29T02:54:06.189Z,96.66
2023-01-29T02:55:06.403Z,96.76
2023-01-29T02:56:06.643Z,96.66
2023-01-29T02:57:06.964Z,96.45
2023-01-29T02:58:07.150Z,96.66
2023-01-29T02:59:07.386Z,96.97
2023-01-29T03:00:07.648Z,97.07
2023-01-29T03:01:07.983Z,96.66
2023-01-29T03:02:08.323Z,96.86
2023-01-29T03:03:08.363Z,96.86
2023-01-29T03:04:08.626Z,96.66
2023-01-29T03:05:08.881Z,96.24
2023-01-29T03:06:09.139Z,96.24
2023-01-29T03:07:09.420Z,96.24
2023-01-29T03:08:09.636Z,95.62
2023-01-29T03:09:09.905Z,96.24
2023-01-29T03:10:10.166Z,96.45
2023-01-29T03:11:10.383Z,96.50
2023-01-29T03:12:10.632Z,96.86
2023-01-29T03:13:10.893Z,96.76
2023-01-29T03:14:11.157Z,96.70
2023-01-29T03:15:11.496Z,96.70
2023-01-29T03:16:11.676Z,96.76
2023-01-29T03:17:11.948Z,96.29
2023-01-29T03:18:12.147Z,96.14
2023-01-29T03:19:12.380Z,96.39
2023-01-29T03:20:12.643Z,96.70
2023-01-29T03:21:12.850Z,96.81
2023-01-29T03:22:13.092Z,96.81
2023-01-29T03:23:13.324Z,96.76
2023-01-29T03:24:13.598Z,96.81
2023-01-29T03:25:13.804Z,96.39
2023-01-29T03:26:14.022Z,96.29
2023-01-29T03:27:14.227Z,96.29
2023-01-29T03:28:14.455Z,95.77
2023-01-29T03:29:14.687Z,96.81
2023-01-29T03:30:15.375Z,96.50
2023-01-29T03:31:15.191Z,96.91
2023-01-29T03:32:15.469Z,96.91
2023-01-29T03:33:15.601Z,96.02
2023-01-29T03:34:18.586Z,95.67
2023-01-29T03:35:16.068Z,96.91
2023-01-29T03:36:16.317Z,96.81
2023-01-29T03:37:16.598Z,96.60
2023-01-29T03:38:16.827Z,96.81
2023-01-29T03:39:17.108Z,97.12
2023-01-29T03:40:17.805Z,96.39
2023-01-29T03:41:17.579Z,96.39
2023-01-29T03:42:17.880Z,96.08
2023-01-29T03:43:18.090Z,96.39
2023-01-29T03:44:18.341Z,95.98
2023-01-29T03:45:18.597Z,96.39
2023-01-29T03:46:18.877Z,95.67
2023-01-29T03:47:19.138Z,96.29
2023-01-29T03:48:19.353Z,96.39
2023-01-29T03:49:19.606Z,96.29
2023-01-29T03:50:20.401Z,96.19
2023-01-29T03:51:20.145Z,96.24
2023-01-29T03:52:20.377Z,96.39
2023-01-29T03:53:20.630Z,95.67
2023-01-29T03:54:20.887Z,95.77
2023-01-29T03:55:21.206Z,96.29
2023-01-29T03:56:21.402Z,96.39
2023-01-29T03:57:21.656Z,95.87
2023-01-29T03:58:21.905Z,96.08
2023-01-29T03:59:22.157Z,96.39
2023-01-29T04:00:22.459Z,95.98
2023-01-29T04:01:22.849Z,95.98
2023-01-29T04:02:22.920Z,96.50
2023-01-29T04:03:23.208Z,95.87
2023-01-29T04:04:23.481Z,95.46
2023-01-29T04:05:23.689Z,95.87
2023-01-29T04:06:24.080Z,95.87
2023-01-29T04:07:24.203Z,95.87
2023-01-29T04:08:24.437Z,95.87
2023-01-29T04:09:24.694Z,96.39
2023-01-29T04:10:24.965Z,96.60
2023-01-29T04:11:25.223Z,95.46
2023-01-29T04:12:25.434Z,95.67
2023-01-29T04:13:25.759Z,96.60
2023-01-29T04:14:25.973Z,96.24
2023-01-29T04:15:26.167Z,96.39
2023-01-29T04:16:26.508Z,95.93
2023-01-29T04:17:26.631Z,95.98
2023-01-29T04:18:26.877Z,95.83
2023-01-29T04:19:27.237Z,95.93
2023-01-29T04:20:27.377Z,96.08
2023-01-29T04:21:27.623Z,95.51
2023-01-29T04:22:27.885Z,95.36
2023-01-29T04:23:28.112Z,95.36
2023-01-29T04:24:28.414Z,95.67
2023-01-29T04:25:28.637Z,95.46
2023-01-29T04:26:28.886Z,95.25
2023-01-29T04:27:29.124Z,95.25
2023-01-29T04:28:29.353Z,95.41
2023-01-29T04:29:30.273Z,95.46
2023-01-29T04:30:29.864Z,95.31
2023-01-29T04:31:30.159Z,95.41
2023-01-29T04:32:30.335Z,95.10
2023-01-29T04:33:30.566Z,95.15
2023-01-29T04:34:30.889Z,95.87
2023-01-29T04:35:31.069Z,95.25
2023-01-29T04:36:31.322Z,95.31
2023-01-29T04:37:31.560Z,95.41
2023-01-29T04:38:31.819Z,95.25
2023-01-29T04:39:32.195Z,95.41
2023-01-29T04:40:32.321Z,94.58
2023-01-29T04:41:32.541Z,94.58
2023-01-29T04:42:32.881Z,95.00
2023-01-29T04:43:33.015Z,95.41
2023-01-29T04:44:33.356Z,95.41
2023-01-29T04:45:33.475Z,95.10
2023-01-29T04:46:33.683Z,95.20
2023-01-29T04:47:33.961Z,95.20
2023-01-29T04:48:34.137Z,95.10
2023-01-29T04:49:34.454Z,95.31
2023-01-29T04:50:34.620Z,95.46
2023-01-29T04:51:35.070Z,95.46
2023-01-29T04:52:35.075Z,95.36
2023-01-29T04:53:35.308Z,95.41
2023-01-29T04:54:35.570Z,95.41
2023-01-29T04:55:35.888Z,95.51
2023-01-29T04:56:36.017Z,95.31
2023-01-29T04:57:36.233Z,95.10
2023-01-29T04:58:36.601Z,95.10
2023-01-29T04:59:36.707Z,95.20
2023-01-29T05:00:36.956Z,95.00
2023-01-29T05:01:37.189Z,94.68
2023-01-29T05:02:37.375Z,94.79
2023-01-29T05:03:37.610Z,94.89
2023-01-29T05:04:37.814Z,94.58
2023-01-29T05:05:38.087Z,94.48
2023-01-29T05:06:38.321Z,94.58
2023-01-29T05:07:38.582Z,94.68
2023-01-29T05:08:38.841Z,94.58
2023-01-29T05:09:39.098Z,95.00
2023-01-29T05:10:39.482Z,95.00
2023-01-29T05:11:39.630Z,95.00
2023-01-29T05:12:39.890Z,94.17
2023-01-29T05:13:40.158Z,94.89
2023-01-29T05:14:40.419Z,94.17
2023-01-29T05:15:40.887Z,94.27
2023-01-29T05:16:40.948Z,94.17
2023-01-29T05:17:41.206Z,95.10
2023-01-29T05:18:41.472Z,94.48
2023-01-29T05:19:41.726Z,94.06
2023-01-29T05:20:42.016Z,94.27
2023-01-29T05:21:42.284Z,94.06
2023-01-29T05:22:42.503Z,94.37
2023-01-29T05:23:42.761Z,95.00
2023-01-29T05:24:43.057Z,94.58
2023-01-29T05:25:43.307Z,94.79
2023-01-29T05:26:43.609Z,94.33
2023-01-29T05:27:43.846Z,94.33
2023-01-29T05:28:44.102Z,94.17
2023-01-29T05:29:44.362Z,94.37
2023-01-29T05:30:44.735Z,94.37
2023-01-29T05:31:45.128Z,94.17
2023-01-29T05:32:45.154Z,94.27
2023-01-29T05:33:45.409Z,94.27
2023-01-29T05:34:45.681Z,94.48
2023-01-29T05:35:45.955Z,94.68
2023-01-29T05:36:46.255Z,94.27
2023-01-29T05:37:46.474Z,94.17
2023-01-29T05:38:46.739Z,94.58
2023-01-29T05:39:47.047Z,94.48
2023-01-29T05:40:47.271Z,93.85
2023-01-29T05:41:47.542Z,93.85
2023-01-29T05:42:47.793Z,94.68
2023-01-29T05:43:48.026Z,94.68
2023-01-29T05:44:48.322Z,94.79
2023-01-29T05:45:48.535Z,94.48
2023-01-29T05:46:48.833Z,94.48
2023-01-29T05:47:49.112Z,94.27
2023-01-29T05:48:49.313Z,94.48
2023-01-29T05:49:49.577Z,94.48
2023-01-29T05:50:49.832Z,95.20
2023-01-29T05:51:50.073Z,94.06
2023-01-29T05:52:50.367Z,94.27
2023-01-29T05:53:50.666Z,94.06
2023-01-29T05:54:50.895Z,93.96
2023-01-29T05:55:51.112Z,94.37
2023-01-29T05:56:51.372Z,94.27
2023-01-29T05:57:51.627Z,95.00
2023-01-29T05:58:51.904Z,95.10
2023-01-29T05:59:52.147Z,94.17
2023-01-29T06:00:52.402Z,94.27
2023-01-29T06:01:52.819Z,94.27
2023-01-29T06:02:53.045Z,94.27
2023-01-29T06:03:53.170Z,94.37
2023-01-29T06:04:53.387Z,95.15
2023-01-29T06:05:53.654Z,94.94
2023-01-29T06:06:53.907Z,94.84
2023-01-29T06:07:54.148Z,95.00
2023-01-29T06:08:54.437Z,94.84
2023-01-29T06:09:54.679Z,94.89
2023-01-29T06:10:54.984Z,94.27
2023-01-29T06:11:55.215Z,94.53
2023-01-29T06:12:55.468Z,94.68
2023-01-29T06:13:55.883Z,94.63
2023-01-29T06:14:55.989Z,94.53
2023-01-29T06:15:56.301Z,94.63
2023-01-29T06:16:56.521Z,95.20
2023-01-29T06:17:56.795Z,95.36
2023-01-29T06:18:57.093Z,95.36
2023-01-29T06:19:57.347Z,95.25
2023-01-29T06:20:57.584Z,95.46
2023-01-29T06:21:57.988Z,95.36
2023-01-29T06:22:58.076Z,95.36
2023-01-29T06:23:58.392Z,95.61
2023-01-29T06:24:58.622Z,95.56
2023-01-29T06:25:58.877Z,95.98
2023-01-29T06:26:59.249Z,96.50
2023-01-29T06:27:59.695Z,96.50
2023-01-29T06:28:59.663Z,96.39
2023-01-29T06:29:59.933Z,96.91
2023-01-29T06:31:11.328Z,96.91
2023-01-29T06:32:00.740Z,96.91
2023-01-29T06:33:00.724Z,96.81
2023-01-29T06:34:00.973Z,96.50
2023-01-29T06:35:01.226Z,96.81
2023-01-29T06:36:01.491Z,96.91
2023-01-29T06:37:01.794Z,96.39
2023-01-29T06:38:02.043Z,96.70
2023-01-29T06:39:02.412Z,96.70
2023-01-29T06:40:02.583Z,96.60
2023-01-29T06:41:02.861Z,96.70
2023-01-29T06:42:03.112Z,96.70
2023-01-29T06:43:03.390Z,96.70
2023-01-29T06:44:03.668Z,96.70
2023-01-29T06:45:03.885Z,96.60
2023-01-29T06:46:04.149Z,96.64
2023-01-29T06:47:04.410Z,96.81
2023-01-29T06:48:04.675Z,96.75
2023-01-29T06:49:04.980Z,96.95
2023-01-29T06:50:05.209Z,96.95
2023-01-29T06:51:05.482Z,96.75
2023-01-29T06:52:05.733Z,97.37
2023-01-29T06:53:05.989Z,97.27
2023-01-29T06:54:06.303Z,97.37
2023-01-29T06:55:06.511Z,97.02
2023-01-29T06:56:06.775Z,97.27
2023-01-29T06:57:07.029Z,97.22
2023-01-29T06:58:07.303Z,97.16
2023-01-29T06:59:07.585Z,97.27
2023-01-29T07:00:07.848Z,97.58
2023-01-29T07:01:08.293Z,97.58
2023-01-29T07:02:08.475Z,97.37
2023-01-29T07:03:08.611Z,97.78
2023-01-29T07:04:08.878Z,97.78
2023-01-29T07:05:09.125Z,98.20
2023-01-29T07:06:09.421Z,97.89
2023-01-29T07:07:09.657Z,98.47
2023-01-29T07:08:09.921Z,98.05
2023-01-29T07:09:10.182Z,97.95
2023-01-29T07:10:10.483Z,97.85
2023-01-29T07:11:10.716Z,98.05
2023-01-29T07:12:10.997Z,98.16
2023-01-29T07:13:11.258Z,98.05
2023-01-29T07:14:11.658Z,97.95
2023-01-29T07:15:11.802Z,98.16
2023-01-29T07:16:12.108Z,97.95
2023-01-29T07:17:12.371Z,98.16
2023-01-29T07:18:12.637Z,98.26
2023-01-29T07:19:12.901Z,98.05
2023-01-29T07:20:13.142Z,97.90
2023-01-29T07:21:13.389Z,98.16
2023-01-29T07:22:13.646Z,98.11
2023-01-29T07:23:13.944Z,98.32
2023-01-29T07:24:14.248Z,98.52
2023-01-29T07:25:14.443Z,98.94
2023-01-29T07:26:14.683Z,98.57
2023-01-29T07:27:14.884Z,98.78
2023-01-29T07:28:15.131Z,98.78
2023-01-29T07:29:15.405Z,98.94
2023-01-29T07:30:16.118Z,99.04
2023-01-29T07:31:15.956Z,98.73
2023-01-29T07:32:16.128Z,99.04
2023-01-29T07:33:16.289Z,98.63
2023-01-29T07:34:16.611Z,98.73
2023-01-29T07:35:16.772Z,98.63
2023-01-29T07:36:17.023Z,98.73
2023-01-29T07:37:17.243Z,98.73
2023-01-29T07:38:17.489Z,99.15
2023-01-29T07:39:17.821Z,99.04
2023-01-29T07:40:18.248Z,98.63
2023-01-29T07:41:18.200Z,99.25
2023-01-29T07:42:18.437Z,99.46
2023-01-29T07:43:18.674Z,98.94
2023-01-29T07:44:18.965Z,98.94
2023-01-29T07:45:19.164Z,98.94
2023-01-29T07:46:19.387Z,99.04
2023-01-29T07:47:19.616Z,98.42
2023-01-29T07:48:19.871Z,99.25
2023-01-29T07:49:20.105Z,98.90
2023-01-29T07:50:20.291Z,98.58
2023-01-29T07:51:20.535Z,98.69
2023-01-29T07:52:22.312Z,99.21
2023-01-29T07:53:20.952Z,99.41
2023-01-29T07:54:21.182Z,98.94
2023-01-29T07:55:21.409Z,98.90
2023-01-29T07:56:21.695Z,98.79
2023-01-29T07:57:21.861Z,99.21
2023-01-29T07:58:22.089Z,98.79
2023-01-29T07:59:22.320Z,99.52
2023-01-29T08:00:22.570Z,99.31
2023-01-29T08:01:22.889Z,99.00
2023-01-29T08:02:23.054Z,98.79
2023-01-29T08:03:23.273Z,99.31
2023-01-29T08:04:23.505Z,98.90
2023-01-29T08:05:23.720Z,98.90
2023-01-29T08:06:23.987Z,99.00
2023-01-29T08:07:24.170Z,99.26
2023-01-29T08:08:24.463Z,99.16
2023-01-29T08:09:24.615Z,98.58
2023-01-29T08:10:24.852Z,98.54
2023-01-29T08:11:25.108Z,98.43
2023-01-29T08:12:25.296Z,98.48
2023-01-29T08:13:25.517Z,98.95
2023-01-29T08:14:25.737Z,99.05
2023-01-29T08:15:25.976Z,98.90
2023-01-29T08:16:26.363Z,99.37
2023-01-29T08:17:26.444Z,98.33
2023-01-29T08:18:26.683Z,98.22
2023-01-29T08:19:26.914Z,98.85
2023-01-29T08:20:27.295Z,98.54
2023-01-29T08:21:27.427Z,99.26
2023-01-29T08:22:27.637Z,99.05
2023-01-29T08:23:27.939Z,99.16
2023-01-29T08:24:36.105Z,98.85
2023-01-29T08:25:28.601Z,98.95
2023-01-29T08:26:28.665Z,98.95
2023-01-29T08:27:28.909Z,99.05
2023-01-29T08:28:29.185Z,98.85
2023-01-29T08:29:29.393Z,98.64
2023-01-29T08:30:29.710Z,98.43
2023-01-29T08:31:29.953Z,98.54
2023-01-29T08:32:30.121Z,98.74
2023-01-29T08:34:30.611Z,98.74
2023-01-29T08:35:30.978Z,98.64
2023-01-29T08:36:31.106Z,98.02
2023-01-29T08:37:31.376Z,98.91
2023-01-29T08:38:31.577Z,98.12
2023-01-29T08:39:33.680Z,98.08
2023-01-29T08:40:32.156Z,97.97
2023-01-29T08:41:32.301Z,98.08
2023-01-29T08:42:32.540Z,98.18
2023-01-29T08:43:32.799Z,97.97
2023-01-29T08:44:33.176Z,98.39
2023-01-29T08:45:33.285Z,98.18
2023-01-29T08:46:33.515Z,97.77
2023-01-29T08:47:33.766Z,97.77
2023-01-29T08:48:34.002Z,97.97
2023-01-29T08:49:34.269Z,97.87
2023-01-29T08:50:34.474Z,97.66
2023-01-29T08:51:34.761Z,97.66
2023-01-29T08:52:34.971Z,97.77
2023-01-29T08:53:35.205Z,97.97
2023-01-29T08:54:35.458Z,98.08
2023-01-29T08:55:35.683Z,98.18
2023-01-29T08:56:35.979Z,98.08
2023-01-29T08:57:36.181Z,98.08
2023-01-29T08:58:36.553Z,97.97
2023-01-29T08:59:36.683Z,97.77
2023-01-29T09:00:36.930Z,97.66
2023-01-29T09:01:37.197Z,97.87
2023-01-29T09:02:37.462Z,98.49
2023-01-29T09:03:37.701Z,98.60
2023-01-29T09:04:37.885Z,99.11
2023-01-29T09:05:38.118Z,99.11
2023-01-29T09:06:38.359Z,99.01
2023-01-29T09:07:38.594Z,99.63
2023-01-29T09:08:38.873Z,99.99
2023-01-29T09:09:39.073Z,99.99
2023-01-29T09:10:39.325Z,99.99
2023-01-29T09:11:39.562Z,99.99
2023-01-29T09:12:39.825Z,99.99
2023-01-29T09:13:40.087Z,99.99
2023-01-29T09:14:40.289Z,99.99
2023-01-29T09:15:40.546Z,99.99
2023-01-29T09:16:40.968Z,99.99
2023-01-29T09:17:41.079Z,99.99
2023-01-29T09:18:41.310Z,99.99
2023-01-29T09:19:41.485Z,99.99
2023-01-29T09:20:41.711Z,99.99
2023-01-29T09:21:41.973Z,99.73
2023-01-29T09:22:42.197Z,99.99
2023-01-29T09:23:42.471Z,99.63
2023-01-29T09:24:42.720Z,99.99
2023-01-29T09:25:42.933Z,99.73
2023-01-29T09:26:43.447Z,99.99
2023-01-29T09:27:43.508Z,99.94
2023-01-29T09:28:43.689Z,99.99
2023-01-29T09:29:43.937Z,99.99
2023-01-29T09:30:44.315Z,99.63
2023-01-29T09:31:44.567Z,99.63
2023-01-29T09:32:53.862Z,99.94
2023-01-29T09:33:45.003Z,99.63
2023-01-29T09:34:45.177Z,99.52
2023-01-29T09:35:45.416Z,99.01
2023-01-29T09:36:45.624Z,99.11
2023-01-29T09:37:45.846Z,99.01
2023-01-29T09:38:46.243Z,99.63
2023-01-29T09:39:46.325Z,99.73
2023-01-29T09:40:46.566Z,99.73
2023-01-29T09:41:46.835Z,99.32
2023-01-29T09:42:47.087Z,99.11
2023-01-29T09:43:47.507Z,98.70
2023-01-29T09:44:47.592Z,99.11
2023-01-29T09:45:47.862Z,99.11
2023-01-29T09:46:48.090Z,98.60
2023-01-29T09:47:48.344Z,98.70
2023-01-29T09:48:48.638Z,98.55
2023-01-29T09:49:48.852Z,98.86
2023-01-29T09:50:49.116Z,99.38
2023-01-29T09:51:49.347Z,98.75
2023-01-29T09:52:49.593Z,98.44
2023-01-29T09:53:49.883Z,98.34
2023-01-29T09:54:50.129Z,98.30
2023-01-29T09:55:50.483Z,98.03
2023-01-29T09:56:50.592Z,97.67
2023-01-29T09:57:50.845Z,97.16
2023-01-29T09:58:51.084Z,97.26
2023-01-29T09:59:51.334Z,97.16
2023-01-29T10:00:51.611Z,97.16
2023-01-29T10:01:51.946Z,96.85
2023-01-29T10:02:52.053Z,96.85
2023-01-29T10:03:52.295Z,96.95
2023-01-29T10:04:52.618Z,96.44
2023-01-29T10:05:52.821Z,96.23
2023-01-29T10:06:53.070Z,96.64
2023-01-29T10:07:53.262Z,96.02
2023-01-29T10:08:53.500Z,96.70
2023-01-29T10:09:53.727Z,96.29
2023-01-29T10:10:54.012Z,96.33
2023-01-29T10:11:56.306Z,96.19
2023-01-29T10:12:54.493Z,96.19
2023-01-29T10:13:54.662Z,95.67
2023-01-29T10:14:54.905Z,95.29
2023-01-29T10:15:55.153Z,94.32
2023-01-29T10:16:55.467Z,94.32
2023-01-29T10:17:55.677Z,94.53
2023-01-29T10:18:55.860Z,94.12
2023-01-29T10:19:56.090Z,94.53
2023-01-29T10:20:56.326Z,94.01
2023-01-29T10:21:56.574Z,94.63
2023-01-29T10:22:56.891Z,94.22
2023-01-29T10:23:57.060Z,93.80
2023-01-29T10:24:57.302Z,94.63
2023-01-29T10:25:57.534Z,94.84
2023-01-29T10:26:57.763Z,93.91
2023-01-29T10:27:58.032Z,94.43
2023-01-29T10:28:58.213Z,94.01
2023-01-29T10:29:58.473Z,93.70
2023-01-29T10:30:58.822Z,93.76
2023-01-29T10:31:59.023Z,92.93
2023-01-29T10:32:59.142Z,93.66
2023-01-29T10:34:03.192Z,93.62
2023-01-29T10:34:59.573Z,92.85
2023-01-29T10:35:59.841Z,92.33
2023-01-29T10:37:00.041Z,92.08
2023-01-29T10:38:00.288Z,91.56
2023-01-29T10:39:00.535Z,91.67
2023-01-29T10:40:00.725Z,91.56
2023-01-29T10:41:00.959Z,91.36
2023-01-29T10:42:01.189Z,91.26
2023-01-29T10:43:01.448Z,91.36
2023-01-29T10:44:01.687Z,90.84
2023-01-29T10:45:01.908Z,91.26
2023-01-29T10:46:02.180Z,91.77
2023-01-29T10:47:02.398Z,91.16
2023-01-29T10:48:02.610Z,90.95
2023-01-29T10:49:02.850Z,90.78
2023-01-29T10:50:03.224Z,90.78
2023-01-29T10:51:03.303Z,90.89
2023-01-29T10:52:03.515Z,91.20
2023-01-29T10:53:03.751Z,91.20
2023-01-29T10:54:03.967Z,91.30
2023-01-29T10:55:04.236Z,92.07
2023-01-29T10:56:13.979Z,91.96
2023-01-29T10:57:04.652Z,91.71
2023-01-29T10:58:04.881Z,91.61
2023-01-29T10:59:05.119Z,91.44
2023-01-29T11:00:05.404Z,91.50
2023-01-29T11:01:05.569Z,91.61
2023-01-29T11:02:05.801Z,91.61
2023-01-29T11:03:10.112Z,90.93
2023-01-29T11:04:06.223Z,91.65
2023-01-29T11:05:06.475Z,91.55
2023-01-29T11:06:06.677Z,91.40
2023-01-29T11:07:06.864Z,91.44
2023-01-29T11:08:07.097Z,91.34
2023-01-29T11:09:07.320Z,91.55
2023-01-29T11:10:07.664Z,91.55
2023-01-29T11:11:07.813Z,91.55
2023-01-29T11:12:07.986Z,91.55
2023-01-29T11:13:08.206Z,91.44
2023-01-29T11:14:08.425Z,91.44
2023-01-29T11:15:08.651Z,91.65
2023-01-29T11:16:09.041Z,91.65
2023-01-29T11:17:09.176Z,91.44
2023-01-29T11:18:09.329Z,91.96
2023-01-29T11:19:09.555Z,92.17
2023-01-29T11:20:09.778Z,92.13
2023-01-29T11:21:10.092Z,93.05
2023-01-29T11:22:10.216Z,93.05
2023-01-29T11:23:10.430Z,92.64
2023-01-29T11:24:10.642Z,92.54
2023-01-29T11:25:10.867Z,92.23
2023-01-29T11:26:11.147Z,92.54
2023-01-29T11:27:11.357Z,92.23
2023-01-29T11:28:11.530Z,92.85
2023-01-29T11:29:11.755Z,93.57
2023-01-29T11:30:11.978Z,94.40
2023-01-29T11:31:12.288Z,94.50
2023-01-29T11:32:12.448Z,94.09
2023-01-29T11:33:12.656Z,94.09
2023-01-29T11:34:12.896Z,93.88
2023-01-29T11:35:13.121Z,94.71
2023-01-29T11:36:13.406Z,94.40
2023-01-29T11:37:13.600Z,94.50
2023-01-29T11:38:13.864Z,93.88
2023-01-29T11:39:14.061Z,93.78
2023-01-29T11:40:14.694Z,93.62
2023-01-29T11:41:14.546Z,94.23
2023-01-29T11:42:15.150Z,93.93
2023-01-29T11:43:15.165Z,94.96
2023-01-29T11:44:15.245Z,94.13
2023-01-29T11:45:15.488Z,94.75
2023-01-29T11:46:15.841Z,94.96
2023-01-29T11:47:15.996Z,95.06
2023-01-29T11:48:16.241Z,94.96
2023-01-29T11:49:20.852Z,94.85
2023-01-29T11:50:17.140Z,95.48
2023-01-29T11:51:16.929Z,96.05
2023-01-29T11:52:17.156Z,94.92
2023-01-29T11:53:17.390Z,95.06
2023-01-29T11:54:17.624Z,94.85
2023-01-29T11:55:17.891Z,94.71
2023-01-29T11:56:18.104Z,94.09
2023-01-29T11:57:19.414Z,93.68
2023-01-29T11:58:18.576Z,94.09
2023-01-29T11:59:18.767Z,94.29
2023-01-29T12:00:19.326Z,93.78
2023-01-29T12:01:19.227Z,94.50
2023-01-29T12:02:19.389Z,93.68
2023-01-29T12:03:19.591Z,93.78
2023-01-29T12:04:19.800Z,93.88
2023-01-29T12:05:19.998Z,93.05
2023-01-29T12:06:20.250Z,92.74
2023-01-29T12:07:20.399Z,93.30
2023-01-29T12:08:20.601Z,93.26
2023-01-29T12:09:20.789Z,94.50
2023-01-29T12:10:21.001Z,92.23
2023-01-29T12:11:21.282Z,92.33
2023-01-29T12:12:21.397Z,93.05
2023-01-29T12:13:21.606Z,92.74
2023-01-29T12:14:21.790Z,92.29
2023-01-29T12:15:22.180Z,91.92
2023-01-29T12:16:22.265Z,92.85
2023-01-29T12:17:22.373Z,92.44
2023-01-29T12:18:22.572Z,93.05
2023-01-29T12:19:22.800Z,92.02
2023-01-29T12:20:22.968Z,92.64
2023-01-29T12:21:23.159Z,92.95
2023-01-29T12:22:23.391Z,92.13
2023-01-29T12:23:23.564Z,91.92
2023-01-29T12:24:23.778Z,92.23
2023-01-29T12:25:24.370Z,91.40
2023-01-29T12:26:24.250Z,91.92
2023-01-29T12:27:24.401Z,91.92
2023-01-29T12:28:24.610Z,92.44
2023-01-29T12:29:24.822Z,92.33
2023-01-29T12:30:25.126Z,92.74
2023-01-29T12:31:25.310Z,92.13
2023-01-29T12:32:25.463Z,91.50
2023-01-29T12:33:25.680Z,91.50
2023-01-29T12:34:25.885Z,91.82
2023-01-29T12:35:26.143Z,91.20
2023-01-29T12:36:26.339Z,91.20
2023-01-29T12:37:26.575Z,91.82
2023-01-29T12:38:26.806Z,91.24
2023-01-29T12:39:27.030Z,91.34
2023-01-29T12:40:27.285Z,91.34
2023-01-29T12:41:27.482Z,91.24
2023-01-29T12:42:27.716Z,91.65
2023-01-29T12:43:28.002Z,91.55
2023-01-29T12:44:28.189Z,91.44
2023-01-29T12:45:28.411Z,91.86
2023-01-29T12:46:28.685Z,92.17
2023-01-29T12:47:28.884Z,92.79
2023-01-29T12:48:29.229Z,92.27
2023-01-29T12:49:29.336Z,92.79
2023-01-29T12:50:29.561Z,92.68
2023-01-29T12:51:29.792Z,92.89
2023-01-29T12:52:30.037Z,92.68
2023-01-29T12:53:30.308Z,92.48
2023-01-29T12:54:30.491Z,92.89
2023-01-29T12:55:30.732Z,92.93
2023-01-29T12:56:31.011Z,93.14